sensor_id;sensor_type;location;lat;lon;timestamp;P1;durP1;ratioP1;P2;durP2;ratioP2
65658;SDS011;60181;53.258;6.932;2022-08-14T00:01:58;11.80;;;9.00;;
65658;SDS011;60181;53.258;6.932;2022-08-14T00:06:25;13.50;;;8.80;;
65658;SDS011;60181;53.258;6.932;2022-08-14T00:10:53;13.50;;;8.80;;
65658;SDS011;60181;53.258;6.932;2022-08-14T00:15:23;13.00;;;8.90;;
65658;SDS011;60181;53.258;6.932;2022-08-14T00:19:49;13.00;;;8.90;;
65658;SDS011;60181;53.258;6.932;2022-08-14T00:24:18;13.00;;;8.90;;
65658;SDS011;60181;53.258;6.932;2022-08-14T00:28:45;13.00;;;9.10;;
65658;SDS011;60181;53.258;6.932;2022-08-14T00:33:13;13.00;;;9.10;;
65658;SDS011;60181;53.258;6.932;2022-08-14T00:37:42;11.50;;;9.40;;
65658;SDS011;60181;53.258;6.932;2022-08-14T00:42:09;11.50;;;9.40;;
65658;SDS011;60181;53.258;6.932;2022-08-14T00:46:37;17.70;;;11.10;;
65658;SDS011;60181;53.258;6.932;2022-08-14T00:51:07;17.70;;;11.10;;
65658;SDS011;60181;53.258;6.932;2022-08-14T00:55:33;16.80;;;11.00;;
65658;SDS011;60181;53.258;6.932;2022-08-14T01:00:04;16.80;;;11.00;;
65658;SDS011;60181;53.258;6.932;2022-08-14T01:04:29;16.80;;;11.00;;
65658;SDS011;60181;53.258;6.932;2022-08-14T01:08:58;16.30;;;11.00;;
65658;SDS011;60181;53.258;6.932;2022-08-14T01:13:30;16.30;;;11.00;;
65658;SDS011;60181;53.258;6.932;2022-08-14T01:17:53;26.90;;;11.30;;
65658;SDS011;60181;53.258;6.932;2022-08-14T01:22:21;26.90;;;11.30;;
65658;SDS011;60181;53.258;6.932;2022-08-14T01:26:49;20.80;;;11.80;;
65658;SDS011;60181;53.258;6.932;2022-08-14T01:31:18;20.80;;;11.80;;
65658;SDS011;60181;53.258;6.932;2022-08-14T01:35:45;19.20;;;12.10;;
65658;SDS011;60181;53.258;6.932;2022-08-14T01:40:13;19.20;;;12.10;;
65658;SDS011;60181;53.258;6.932;2022-08-14T01:44:41;19.20;;;12.10;;
65658;SDS011;60181;53.258;6.932;2022-08-14T01:49:10;18.60;;;12.70;;
65658;SDS011;60181;53.258;6.932;2022-08-14T01:53:40;18.60;;;12.70;;
65658;SDS011;60181;53.258;6.932;2022-08-14T01:58:05;18.00;;;13.00;;
65658;SDS011;60181;53.258;6.932;2022-08-14T02:02:33;18.00;;;13.00;;
65658;SDS011;60181;53.258;6.932;2022-08-14T02:07:02;18.80;;;12.80;;
65658;SDS011;60181;53.258;6.932;2022-08-14T02:11:29;18.80;;;12.80;;
65658;SDS011;60181;53.258;6.932;2022-08-14T02:15:57;18.90;;;12.40;;
65658;SDS011;60181;53.258;6.932;2022-08-14T02:20:28;18.90;;;12.40;;
65658;SDS011;60181;53.258;6.932;2022-08-14T02:24:53;18.10;;;12.30;;
65658;SDS011;60181;53.258;6.932;2022-08-14T02:29:22;18.10;;;12.30;;
65658;SDS011;60181;53.258;6.932;2022-08-14T02:33:49;18.10;;;12.30;;
65658;SDS011;60181;53.258;6.932;2022-08-14T02:38:17;18.00;;;13.30;;
65658;SDS011;60181;53.258;6.932;2022-08-14T02:42:46;18.00;;;13.30;;
65658;SDS011;60181;53.258;6.932;2022-08-14T02:47:13;27.40;;;12.90;;
65658;SDS011;60181;53.258;6.932;2022-08-14T02:51:41;27.40;;;12.90;;
65658;SDS011;60181;53.258;6.932;2022-08-14T02:56:10;27.20;;;13.30;;
65658;SDS011;60181;53.258;6.932;2022-08-14T03:00:37;27.20;;;13.30;;
65658;SDS011;60181;53.258;6.932;2022-08-14T03:05:05;25.70;;;13.30;;
65658;SDS011;60181;53.258;6.932;2022-08-14T03:09:34;25.70;;;13.30;;
65658;SDS011;60181;53.258;6.932;2022-08-14T03:14:01;25.70;;;13.30;;
65658;SDS011;60181;53.258;6.932;2022-08-14T03:18:29;17.80;;;12.80;;
65658;SDS011;60181;53.258;6.932;2022-08-14T03:22:57;17.80;;;12.80;;
65658;SDS011;60181;53.258;6.932;2022-08-14T03:27:25;20.70;;;12.90;;
65658;SDS011;60181;53.258;6.932;2022-08-14T03:31:53;20.70;;;12.90;;
65658;SDS011;60181;53.258;6.932;2022-08-14T03:36:21;17.90;;;13.00;;
65658;SDS011;60181;53.258;6.932;2022-08-14T03:40:49;17.90;;;13.00;;
65658;SDS011;60181;53.258;6.932;2022-08-14T03:45:17;19.00;;;13.00;;
65658;SDS011;60181;53.258;6.932;2022-08-14T03:49:45;19.00;;;13.00;;
65658;SDS011;60181;53.258;6.932;2022-08-14T03:54:13;19.00;;;13.00;;
65658;SDS011;60181;53.258;6.932;2022-08-14T03:58:42;20.10;;;13.30;;
65658;SDS011;60181;53.258;6.932;2022-08-14T04:03:09;20.10;;;13.30;;
65658;SDS011;60181;53.258;6.932;2022-08-14T04:07:37;22.30;;;13.80;;
65658;SDS011;60181;53.258;6.932;2022-08-14T04:12:05;22.30;;;13.80;;
65658;SDS011;60181;53.258;6.932;2022-08-14T04:16:33;23.80;;;14.30;;
65658;SDS011;60181;53.258;6.932;2022-08-14T04:21:01;23.80;;;14.30;;
65658;SDS011;60181;53.258;6.932;2022-08-14T04:25:29;21.00;;;14.00;;
65658;SDS011;60181;53.258;6.932;2022-08-14T04:29:57;21.00;;;14.00;;
65658;SDS011;60181;53.258;6.932;2022-08-14T04:34:25;21.00;;;14.00;;
65658;SDS011;60181;53.258;6.932;2022-08-14T04:38:53;17.90;;;13.70;;
65658;SDS011;60181;53.258;6.932;2022-08-14T04:43:21;17.90;;;13.70;;
65658;SDS011;60181;53.258;6.932;2022-08-14T04:47:50;19.50;;;13.80;;
65658;SDS011;60181;53.258;6.932;2022-08-14T04:52:17;19.50;;;13.80;;
65658;SDS011;60181;53.258;6.932;2022-08-14T04:56:45;22.00;;;13.50;;
65658;SDS011;60181;53.258;6.932;2022-08-14T05:01:13;22.00;;;13.50;;
65658;SDS011;60181;53.258;6.932;2022-08-14T05:05:41;17.20;;;12.70;;
65658;SDS011;60181;53.258;6.932;2022-08-14T05:10:09;17.20;;;12.70;;
65658;SDS011;60181;53.258;6.932;2022-08-14T05:14:37;17.20;;;12.70;;
65658;SDS011;60181;53.258;6.932;2022-08-14T05:19:05;17.50;;;13.10;;
65658;SDS011;60181;53.258;6.932;2022-08-14T05:23:34;17.50;;;13.10;;
65658;SDS011;60181;53.258;6.932;2022-08-14T05:28:10;19.80;;;13.80;;
65658;SDS011;60181;53.258;6.932;2022-08-14T05:32:29;19.80;;;13.80;;
65658;SDS011;60181;53.258;6.932;2022-08-14T05:36:57;18.10;;;13.60;;
65658;SDS011;60181;53.258;6.932;2022-08-14T05:41:25;18.10;;;13.60;;
65658;SDS011;60181;53.258;6.932;2022-08-14T05:45:53;19.00;;;13.60;;
65658;SDS011;60181;53.258;6.932;2022-08-14T05:50:21;19.00;;;13.60;;
65658;SDS011;60181;53.258;6.932;2022-08-14T05:54:49;18.90;;;13.50;;
65658;SDS011;60181;53.258;6.932;2022-08-14T05:59:17;18.90;;;13.50;;
65658;SDS011;60181;53.258;6.932;2022-08-14T06:03:45;18.90;;;13.50;;
65658;SDS011;60181;53.258;6.932;2022-08-14T06:08:14;22.10;;;13.60;;
65658;SDS011;60181;53.258;6.932;2022-08-14T06:12:41;22.10;;;13.60;;
65658;SDS011;60181;53.258;6.932;2022-08-14T06:17:09;19.00;;;13.60;;
65658;SDS011;60181;53.258;6.932;2022-08-14T06:21:37;19.00;;;13.60;;
65658;SDS011;60181;53.258;6.932;2022-08-14T06:26:05;21.30;;;13.60;;
65658;SDS011;60181;53.258;6.932;2022-08-14T06:30:33;21.30;;;13.60;;
65658;SDS011;60181;53.258;6.932;2022-08-14T06:35:02;20.90;;;14.20;;
65658;SDS011;60181;53.258;6.932;2022-08-14T06:39:29;20.90;;;14.20;;
65658;SDS011;60181;53.258;6.932;2022-08-14T06:43:57;20.90;;;14.20;;
65658;SDS011;60181;53.258;6.932;2022-08-14T06:48:25;18.10;;;13.50;;
65658;SDS011;60181;53.258;6.932;2022-08-14T06:52:53;18.10;;;13.50;;
65658;SDS011;60181;53.258;6.932;2022-08-14T06:57:21;18.80;;;12.70;;
65658;SDS011;60181;53.258;6.932;2022-08-14T07:01:49;18.80;;;12.70;;
65658;SDS011;60181;53.258;6.932;2022-08-14T07:06:17;26.90;;;13.70;;
65658;SDS011;60181;53.258;6.932;2022-08-14T07:10:45;26.90;;;13.70;;
65658;SDS011;60181;53.258;6.932;2022-08-14T07:15:13;28.30;;;12.90;;
65658;SDS011;60181;53.258;6.932;2022-08-14T07:19:41;28.30;;;12.90;;
65658;SDS011;60181;53.258;6.932;2022-08-14T07:24:09;28.30;;;12.90;;
65658;SDS011;60181;53.258;6.932;2022-08-14T07:28:38;21.40;;;12.70;;
65658;SDS011;60181;53.258;6.932;2022-08-14T07:33:05;21.40;;;12.70;;
65658;SDS011;60181;53.258;6.932;2022-08-14T07:37:33;20.60;;;12.40;;
65658;SDS011;60181;53.258;6.932;2022-08-14T07:42:01;20.60;;;12.40;;
65658;SDS011;60181;53.258;6.932;2022-08-14T07:46:29;20.60;;;12.40;;
65658;SDS011;60181;53.258;6.932;2022-08-14T07:50:57;20.60;;;12.40;;
65658;SDS011;60181;53.258;6.932;2022-08-14T07:55:25;16.00;;;11.60;;
65658;SDS011;60181;53.258;6.932;2022-08-14T07:59:53;16.00;;;11.60;;
65658;SDS011;60181;53.258;6.932;2022-08-14T08:04:22;16.00;;;11.60;;
65658;SDS011;60181;53.258;6.932;2022-08-14T08:08:49;16.10;;;11.30;;
65658;SDS011;60181;53.258;6.932;2022-08-14T08:13:18;16.10;;;11.30;;
65658;SDS011;60181;53.258;6.932;2022-08-14T08:17:45;20.10;;;11.10;;
65658;SDS011;60181;53.258;6.932;2022-08-14T08:22:13;20.10;;;11.10;;
65658;SDS011;60181;53.258;6.932;2022-08-14T08:26:41;22.30;;;11.80;;
65658;SDS011;60181;53.258;6.932;2022-08-14T08:31:09;22.30;;;11.80;;
65658;SDS011;60181;53.258;6.932;2022-08-14T08:35:37;21.10;;;11.30;;
65658;SDS011;60181;53.258;6.932;2022-08-14T08:40:05;21.10;;;11.30;;
65658;SDS011;60181;53.258;6.932;2022-08-14T08:44:33;21.10;;;11.30;;
65658;SDS011;60181;53.258;6.932;2022-08-14T08:49:01;19.30;;;10.70;;
65658;SDS011;60181;53.258;6.932;2022-08-14T08:53:30;19.30;;;10.70;;
65658;SDS011;60181;53.258;6.932;2022-08-14T08:57:57;14.80;;;11.10;;
65658;SDS011;60181;53.258;6.932;2022-08-14T09:02:25;14.80;;;11.10;;
65658;SDS011;60181;53.258;6.932;2022-08-14T09:06:53;15.10;;;11.00;;
65658;SDS011;60181;53.258;6.932;2022-08-14T09:11:21;15.10;;;11.00;;
65658;SDS011;60181;53.258;6.932;2022-08-14T09:15:49;13.90;;;10.80;;
65658;SDS011;60181;53.258;6.932;2022-08-14T09:20:17;13.90;;;10.80;;
65658;SDS011;60181;53.258;6.932;2022-08-14T09:24:45;15.20;;;10.80;;
65658;SDS011;60181;53.258;6.932;2022-08-14T09:29:13;15.20;;;10.80;;
65658;SDS011;60181;53.258;6.932;2022-08-14T09:33:46;15.20;;;10.80;;
65658;SDS011;60181;53.258;6.932;2022-08-14T09:38:27;16.30;;;10.90;;
65658;SDS011;60181;53.258;6.932;2022-08-14T09:47:05;15.90;;;11.20;;
65658;SDS011;60181;53.258;6.932;2022-08-14T09:51:35;15.90;;;11.20;;
65658;SDS011;60181;53.258;6.932;2022-08-14T09:56:01;15.10;;;11.50;;
65658;SDS011;60181;53.258;6.932;2022-08-14T10:00:39;15.10;;;11.50;;
65658;SDS011;60181;53.258;6.932;2022-08-14T10:05:00;16.10;;;11.30;;
65658;SDS011;60181;53.258;6.932;2022-08-14T10:09:24;16.10;;;11.30;;
65658;SDS011;60181;53.258;6.932;2022-08-14T10:13:54;16.10;;;11.30;;
65658;SDS011;60181;53.258;6.932;2022-08-14T10:18:25;13.30;;;11.10;;
65658;SDS011;60181;53.258;6.932;2022-08-14T10:22:48;13.30;;;11.10;;
65658;SDS011;60181;53.258;6.932;2022-08-14T10:27:17;16.40;;;11.30;;
65658;SDS011;60181;53.258;6.932;2022-08-14T10:31:44;16.40;;;11.30;;
65658;SDS011;60181;53.258;6.932;2022-08-14T10:36:12;14.10;;;10.90;;
65658;SDS011;60181;53.258;6.932;2022-08-14T10:40:40;14.10;;;10.90;;
65658;SDS011;60181;53.258;6.932;2022-08-14T10:45:21;14.40;;;11.30;;
65658;SDS011;60181;53.258;6.932;2022-08-14T10:49:37;14.40;;;11.30;;
65658;SDS011;60181;53.258;6.932;2022-08-14T10:54:05;14.40;;;11.30;;
65658;SDS011;60181;53.258;6.932;2022-08-14T10:58:33;19.20;;;11.20;;
65658;SDS011;60181;53.258;6.932;2022-08-14T11:03:02;19.20;;;11.20;;
65658;SDS011;60181;53.258;6.932;2022-08-14T11:07:28;13.50;;;11.00;;
65658;SDS011;60181;53.258;6.932;2022-08-14T11:11:56;13.50;;;11.00;;
65658;SDS011;60181;53.258;6.932;2022-08-14T11:16:24;15.50;;;11.20;;
65658;SDS011;60181;53.258;6.932;2022-08-14T11:20:53;15.50;;;11.20;;
65658;SDS011;60181;53.258;6.932;2022-08-14T11:25:21;16.10;;;10.60;;
65658;SDS011;60181;53.258;6.932;2022-08-14T11:29:48;16.10;;;10.60;;
65658;SDS011;60181;53.258;6.932;2022-08-14T11:34:16;16.10;;;10.60;;
65658;SDS011;60181;53.258;6.932;2022-08-14T11:38:44;14.50;;;10.90;;
65658;SDS011;60181;53.258;6.932;2022-08-14T11:43:13;14.50;;;10.90;;
65658;SDS011;60181;53.258;6.932;2022-08-14T11:47:41;14.80;;;11.10;;
65658;SDS011;60181;53.258;6.932;2022-08-14T11:52:08;14.80;;;11.10;;
65658;SDS011;60181;53.258;6.932;2022-08-14T11:56:37;13.40;;;10.90;;
65658;SDS011;60181;53.258;6.932;2022-08-14T12:01:05;13.40;;;10.90;;
65658;SDS011;60181;53.258;6.932;2022-08-14T12:05:33;17.60;;;11.20;;
65658;SDS011;60181;53.258;6.932;2022-08-14T12:10:00;17.60;;;11.20;;
65658;SDS011;60181;53.258;6.932;2022-08-14T12:14:28;17.60;;;11.20;;
65658;SDS011;60181;53.258;6.932;2022-08-14T12:18:56;17.50;;;11.00;;
65658;SDS011;60181;53.258;6.932;2022-08-14T12:23:24;17.50;;;11.00;;
65658;SDS011;60181;53.258;6.932;2022-08-14T12:27:53;18.30;;;11.30;;
65658;SDS011;60181;53.258;6.932;2022-08-14T12:32:20;18.30;;;11.30;;
65658;SDS011;60181;53.258;6.932;2022-08-14T12:36:48;15.70;;;11.90;;
65658;SDS011;60181;53.258;6.932;2022-08-14T12:41:20;15.70;;;11.90;;
65658;SDS011;60181;53.258;6.932;2022-08-14T12:45:45;18.70;;;12.10;;
65658;SDS011;60181;53.258;6.932;2022-08-14T12:50:12;18.70;;;12.10;;
65658;SDS011;60181;53.258;6.932;2022-08-14T12:54:40;18.70;;;12.10;;
65658;SDS011;60181;53.258;6.932;2022-08-14T12:59:08;18.70;;;12.00;;
65658;SDS011;60181;53.258;6.932;2022-08-14T13:03:36;18.70;;;12.00;;
65658;SDS011;60181;53.258;6.932;2022-08-14T13:08:04;17.50;;;12.30;;
65658;SDS011;60181;53.258;6.932;2022-08-14T13:12:32;17.50;;;12.30;;
65658;SDS011;60181;53.258;6.932;2022-08-14T13:17:00;18.60;;;12.60;;
65658;SDS011;60181;53.258;6.932;2022-08-14T13:21:28;18.60;;;12.60;;
65658;SDS011;60181;53.258;6.932;2022-08-14T13:25:56;16.90;;;12.60;;
65658;SDS011;60181;53.258;6.932;2022-08-14T13:30:24;16.90;;;12.60;;
65658;SDS011;60181;53.258;6.932;2022-08-14T13:34:53;17.40;;;12.40;;
65658;SDS011;60181;53.258;6.932;2022-08-14T13:39:21;17.40;;;12.40;;
65658;SDS011;60181;53.258;6.932;2022-08-14T13:43:49;17.40;;;12.40;;
65658;SDS011;60181;53.258;6.932;2022-08-14T13:48:16;19.30;;;12.50;;
65658;SDS011;60181;53.258;6.932;2022-08-14T13:52:46;19.30;;;12.50;;
65658;SDS011;60181;53.258;6.932;2022-08-14T13:57:13;19.40;;;12.80;;
65658;SDS011;60181;53.258;6.932;2022-08-14T14:01:41;19.40;;;12.80;;
65658;SDS011;60181;53.258;6.932;2022-08-14T14:06:08;16.20;;;12.40;;
65658;SDS011;60181;53.258;6.932;2022-08-14T14:10:36;16.20;;;12.40;;
65658;SDS011;60181;53.258;6.932;2022-08-14T14:15:05;20.30;;;12.60;;
65658;SDS011;60181;53.258;6.932;2022-08-14T14:19:32;20.30;;;12.60;;
65658;SDS011;60181;53.258;6.932;2022-08-14T14:24:00;20.30;;;12.60;;
65658;SDS011;60181;53.258;6.932;2022-08-14T14:28:29;16.80;;;12.40;;
65658;SDS011;60181;53.258;6.932;2022-08-14T14:32:56;16.80;;;12.40;;
65658;SDS011;60181;53.258;6.932;2022-08-14T14:37:24;17.90;;;12.40;;
65658;SDS011;60181;53.258;6.932;2022-08-14T14:41:53;17.90;;;12.40;;
65658;SDS011;60181;53.258;6.932;2022-08-14T14:46:21;17.90;;;12.70;;
65658;SDS011;60181;53.258;6.932;2022-08-14T14:50:48;17.90;;;12.70;;
65658;SDS011;60181;53.258;6.932;2022-08-14T14:55:16;18.60;;;13.10;;
65658;SDS011;60181;53.258;6.932;2022-08-14T14:59:44;18.60;;;13.10;;
65658;SDS011;60181;53.258;6.932;2022-08-14T15:04:12;18.60;;;13.10;;
65658;SDS011;60181;53.258;6.932;2022-08-14T15:08:40;16.70;;;13.10;;
65658;SDS011;60181;53.258;6.932;2022-08-14T15:13:08;16.70;;;13.10;;
65658;SDS011;60181;53.258;6.932;2022-08-14T15:17:39;16.90;;;12.60;;
65658;SDS011;60181;53.258;6.932;2022-08-14T15:22:04;16.90;;;12.60;;
65658;SDS011;60181;53.258;6.932;2022-08-14T15:26:32;18.50;;;12.70;;
65658;SDS011;60181;53.258;6.932;2022-08-14T15:31:00;18.50;;;12.70;;
65658;SDS011;60181;53.258;6.932;2022-08-14T15:35:28;17.40;;;13.10;;
65658;SDS011;60181;53.258;6.932;2022-08-14T15:39:56;17.40;;;13.10;;
65658;SDS011;60181;53.258;6.932;2022-08-14T15:44:24;17.40;;;13.10;;
65658;SDS011;60181;53.258;6.932;2022-08-14T15:48:52;18.70;;;12.90;;
65658;SDS011;60181;53.258;6.932;2022-08-14T15:53:21;18.70;;;12.90;;
65658;SDS011;60181;53.258;6.932;2022-08-14T15:57:48;17.60;;;13.20;;
65658;SDS011;60181;53.258;6.932;2022-08-14T16:02:16;17.60;;;13.20;;
65658;SDS011;60181;53.258;6.932;2022-08-14T16:06:44;16.60;;;12.60;;
65658;SDS011;60181;53.258;6.932;2022-08-14T16:11:13;16.60;;;12.60;;
65658;SDS011;60181;53.258;6.932;2022-08-14T16:15:40;18.20;;;12.80;;
65658;SDS011;60181;53.258;6.932;2022-08-14T16:20:08;18.20;;;12.80;;
65658;SDS011;60181;53.258;6.932;2022-08-14T16:24:38;18.20;;;12.80;;
65658;SDS011;60181;53.258;6.932;2022-08-14T16:29:04;18.90;;;12.70;;
65658;SDS011;60181;53.258;6.932;2022-08-14T16:33:32;18.90;;;12.70;;
65658;SDS011;60181;53.258;6.932;2022-08-14T16:38:00;16.70;;;12.20;;
65658;SDS011;60181;53.258;6.932;2022-08-14T16:42:28;16.70;;;12.20;;
65658;SDS011;60181;53.258;6.932;2022-08-14T16:46:56;18.80;;;13.00;;
65658;SDS011;60181;53.258;6.932;2022-08-14T16:51:25;18.80;;;13.00;;
65658;SDS011;60181;53.258;6.932;2022-08-14T17:00:33;18.00;;;12.90;;
65658;SDS011;60181;53.258;6.932;2022-08-14T17:04:48;18.00;;;12.90;;
65658;SDS011;60181;53.258;6.932;2022-08-14T17:13:44;18.60;;;13.20;;
65658;SDS011;60181;53.258;6.932;2022-08-14T17:18:12;18.70;;;12.50;;
65658;SDS011;60181;53.258;6.932;2022-08-14T17:22:47;18.70;;;12.50;;
65658;SDS011;60181;53.258;6.932;2022-08-14T17:27:08;18.30;;;12.80;;
65658;SDS011;60181;53.258;6.932;2022-08-14T17:31:37;18.30;;;12.80;;
65658;SDS011;60181;53.258;6.932;2022-08-14T17:36:17;55.40;;;14.50;;
65658;SDS011;60181;53.258;6.932;2022-08-14T17:40:32;55.40;;;14.50;;
65658;SDS011;60181;53.258;6.932;2022-08-14T17:45:00;37.90;;;14.30;;
65658;SDS011;60181;53.258;6.932;2022-08-14T17:49:29;37.90;;;14.30;;
65658;SDS011;60181;53.258;6.932;2022-08-14T17:53:59;37.90;;;14.30;;
65658;SDS011;60181;53.258;6.932;2022-08-14T17:58:24;36.30;;;14.40;;
65658;SDS011;60181;53.258;6.932;2022-08-14T18:02:52;36.30;;;14.40;;
65658;SDS011;60181;53.258;6.932;2022-08-14T18:07:20;35.20;;;13.60;;
65658;SDS011;60181;53.258;6.932;2022-08-14T18:11:48;35.20;;;13.60;;
65658;SDS011;60181;53.258;6.932;2022-08-14T18:16:16;26.60;;;12.90;;
65658;SDS011;60181;53.258;6.932;2022-08-14T18:20:44;26.60;;;12.90;;
65658;SDS011;60181;53.258;6.932;2022-08-14T18:25:12;26.60;;;12.80;;
65658;SDS011;60181;53.258;6.932;2022-08-14T18:29:42;26.60;;;12.80;;
65658;SDS011;60181;53.258;6.932;2022-08-14T18:34:12;26.60;;;12.80;;
65658;SDS011;60181;53.258;6.932;2022-08-14T18:38:36;23.70;;;12.60;;
65658;SDS011;60181;53.258;6.932;2022-08-14T18:43:04;23.70;;;12.60;;
65658;SDS011;60181;53.258;6.932;2022-08-14T18:47:32;21.80;;;12.60;;
65658;SDS011;60181;53.258;6.932;2022-08-14T18:52:12;21.80;;;12.60;;
65658;SDS011;60181;53.258;6.932;2022-08-14T19:00:56;20.10;;;12.40;;
65658;SDS011;60181;53.258;6.932;2022-08-14T19:09:56;18.70;;;12.30;;
65658;SDS011;60181;53.258;6.932;2022-08-14T19:18:54;23.40;;;12.50;;
65658;SDS011;60181;53.258;6.932;2022-08-14T19:23:17;23.40;;;12.50;;
65658;SDS011;60181;53.258;6.932;2022-08-14T19:27:44;26.50;;;13.00;;
65658;SDS011;60181;53.258;6.932;2022-08-14T19:36:50;22.70;;;12.80;;
65658;SDS011;60181;53.258;6.932;2022-08-14T19:41:26;22.70;;;12.80;;
65658;SDS011;60181;53.258;6.932;2022-08-14T19:45:37;24.10;;;12.60;;
65658;SDS011;60181;53.258;6.932;2022-08-14T19:50:04;24.10;;;12.60;;
65658;SDS011;60181;53.258;6.932;2022-08-14T19:54:33;24.10;;;12.60;;
65658;SDS011;60181;53.258;6.932;2022-08-14T19:59:00;26.40;;;12.90;;
65658;SDS011;60181;53.258;6.932;2022-08-14T20:03:35;26.40;;;12.90;;
65658;SDS011;60181;53.258;6.932;2022-08-14T20:07:59;24.20;;;12.50;;
65658;SDS011;60181;53.258;6.932;2022-08-14T20:12:24;24.20;;;12.50;;
65658;SDS011;60181;53.258;6.932;2022-08-14T20:16:52;21.70;;;12.00;;
65658;SDS011;60181;53.258;6.932;2022-08-14T20:21:20;21.70;;;12.00;;
65658;SDS011;60181;53.258;6.932;2022-08-14T20:25:48;20.40;;;12.30;;
65658;SDS011;60181;53.258;6.932;2022-08-14T20:30:17;20.40;;;12.30;;
65658;SDS011;60181;53.258;6.932;2022-08-14T20:34:44;20.40;;;12.30;;
65658;SDS011;60181;53.258;6.932;2022-08-14T20:39:12;18.90;;;12.50;;
65658;SDS011;60181;53.258;6.932;2022-08-14T20:43:40;18.90;;;12.50;;
65658;SDS011;60181;53.258;6.932;2022-08-14T20:48:08;25.20;;;13.10;;
65658;SDS011;60181;53.258;6.932;2022-08-14T20:52:36;25.20;;;13.10;;
65658;SDS011;60181;53.258;6.932;2022-08-14T20:57:04;28.70;;;13.20;;
65658;SDS011;60181;53.258;6.932;2022-08-14T21:01:33;28.70;;;13.20;;
65658;SDS011;60181;53.258;6.932;2022-08-14T21:06:02;23.60;;;12.30;;
65658;SDS011;60181;53.258;6.932;2022-08-14T21:10:28;23.60;;;12.30;;
65658;SDS011;60181;53.258;6.932;2022-08-14T21:14:56;19.40;;;13.10;;
65658;SDS011;60181;53.258;6.932;2022-08-14T21:19:24;19.40;;;13.10;;
65658;SDS011;60181;53.258;6.932;2022-08-14T21:23:52;19.40;;;13.10;;
65658;SDS011;60181;53.258;6.932;2022-08-14T21:28:20;20.80;;;13.00;;
65658;SDS011;60181;53.258;6.932;2022-08-14T21:32:48;20.80;;;13.00;;
65658;SDS011;60181;53.258;6.932;2022-08-14T21:37:16;21.60;;;12.30;;
65658;SDS011;60181;53.258;6.932;2022-08-14T21:41:44;21.60;;;12.30;;
65658;SDS011;60181;53.258;6.932;2022-08-14T21:46:12;22.20;;;13.30;;
65658;SDS011;60181;53.258;6.932;2022-08-14T21:50:44;22.20;;;13.30;;
65658;SDS011;60181;53.258;6.932;2022-08-14T21:55:09;19.50;;;12.80;;
65658;SDS011;60181;53.258;6.932;2022-08-14T21:59:36;19.50;;;12.80;;
65658;SDS011;60181;53.258;6.932;2022-08-14T22:04:04;19.50;;;12.80;;
65658;SDS011;60181;53.258;6.932;2022-08-14T22:08:32;18.60;;;12.60;;
65658;SDS011;60181;53.258;6.932;2022-08-14T22:13:00;18.60;;;12.60;;
65658;SDS011;60181;53.258;6.932;2022-08-14T22:17:28;16.60;;;13.00;;
65658;SDS011;60181;53.258;6.932;2022-08-14T22:21:55;16.60;;;13.00;;
65658;SDS011;60181;53.258;6.932;2022-08-14T22:26:24;23.70;;;13.00;;
65658;SDS011;60181;53.258;6.932;2022-08-14T22:30:52;23.70;;;13.00;;
65658;SDS011;60181;53.258;6.932;2022-08-14T22:35:20;21.20;;;13.30;;
65658;SDS011;60181;53.258;6.932;2022-08-14T22:39:47;21.20;;;13.30;;
65658;SDS011;60181;53.258;6.932;2022-08-14T22:44:17;21.20;;;13.30;;
65658;SDS011;60181;53.258;6.932;2022-08-14T22:48:44;23.50;;;13.70;;
65658;SDS011;60181;53.258;6.932;2022-08-14T22:53:11;23.50;;;13.70;;
65658;SDS011;60181;53.258;6.932;2022-08-14T22:57:40;21.80;;;12.90;;
65658;SDS011;60181;53.258;6.932;2022-08-14T23:02:12;21.80;;;12.90;;
65658;SDS011;60181;53.258;6.932;2022-08-14T23:06:36;18.40;;;13.40;;
65658;SDS011;60181;53.258;6.932;2022-08-14T23:11:04;18.40;;;13.40;;
65658;SDS011;60181;53.258;6.932;2022-08-14T23:15:32;19.80;;;13.20;;
65658;SDS011;60181;53.258;6.932;2022-08-14T23:19:59;19.80;;;13.20;;
65658;SDS011;60181;53.258;6.932;2022-08-14T23:24:27;19.80;;;13.20;;
65658;SDS011;60181;53.258;6.932;2022-08-14T23:28:56;21.10;;;14.10;;
65658;SDS011;60181;53.258;6.932;2022-08-14T23:33:23;21.10;;;14.10;;
65658;SDS011;60181;53.258;6.932;2022-08-14T23:37:53;19.00;;;13.40;;
65658;SDS011;60181;53.258;6.932;2022-08-14T23:42:19;19.00;;;13.40;;
65658;SDS011;60181;53.258;6.932;2022-08-14T23:46:48;18.50;;;13.60;;
65658;SDS011;60181;53.258;6.932;2022-08-14T23:51:16;18.50;;;13.60;;
65658;SDS011;60181;53.258;6.932;2022-08-14T23:55:43;21.50;;;13.90;;
